Time;durP1;ratioP1;P1;durP2;ratioP2;P2;SDS_P1;SDS_P2;PMS_P1;PMS_P2;Temp;Humidity;BMP_temperature;BMP_pressure;BME280_temperature;BME280_humidity;BME280_pressure;Samples;Min_cycle;Max_cycle;Signal;HPM_P1;HPM_P2
2021/03/08 00:01:38;;;;;;;24.67;15.73;;;;;;;;;;6316118;22;20408;-93
2021/03/08 00:04:04;;;;;;;27.38;15.57;;;;;;;;;;6318998;22;20471;-94
2021/03/08 00:06:31;;;;;;;24.23;15.45;;;;;;;;;;6317326;22;20178;-94
2021/03/08 00:08:57;;;;;;;22.25;14.48;;;;;;;;;;6319344;22;20174;-94
2021/03/08 00:11:23;;;;;;;23.23;15.93;;;;;;;;;;6316768;22;20204;-94
2021/03/08 00:13:49;;;;;;;34.10;19.80;;;;;;;;;;6318590;22;20448;-95
2021/03/08 00:16:15;;;;;;;26.25;18.13;;;;;;;;;;6317842;22;20408;-93
2021/03/08 00:18:41;;;;;;;28.60;17.67;;;;;;;;;;6318278;22;20170;-94
2021/03/08 00:21:07;;;;;;;29.60;18.63;;;;;;;;;;6314395;22;20840;-94
2021/03/08 00:23:34;;;;;;;23.33;16.35;;;;;;;;;;6316493;22;20408;-94
2021/03/08 00:26:00;;;;;;;23.63;17.63;;;;;;;;;;6315470;22;20182;-93
2021/03/08 00:28:26;;;;;;;29.50;17.98;;;;;;;;;;6317517;22;20190;-94
2021/03/08 00:30:52;;;;;;;26.70;16.90;;;;;;;;;;6318310;22;20199;-94
2021/03/08 00:33:18;;;;;;;22.87;14.77;;;;;;;;;;6315616;22;20178;-94
2021/03/08 00:35:44;;;;;;;26.33;15.93;;;;;;;;;;6317708;22;20405;-94
2021/03/08 00:38:10;;;;;;;27.90;16.60;;;;;;;;;;6316924;22;20178;-94
2021/03/08 00:40:37;;;;;;;23.40;15.35;;;;;;;;;;6318836;22;20232;-94
2021/03/08 00:43:03;;;;;;;22.80;14.00;;;;;;;;;;6317160;22;20175;-93
2021/03/08 00:45:29;;;;;;;23.17;15.25;;;;;;;;;;6317178;22;20186;-93
2021/03/08 00:47:55;;;;;;;26.08;16.02;;;;;;;;;;6317091;22;20178;-93
2021/03/08 00:50:22;;;;;;;23.40;15.07;;;;;;;;;;6318445;22;20178;-94
2021/03/08 00:52:48;;;;;;;29.15;17.30;;;;;;;;;;6317879;22;20568;-94
2021/03/08 00:55:15;;;;;;;21.63;14.15;;;;;;;;;;6318997;22;20215;-93
2021/03/08 00:57:42;;;;;;;21.40;13.30;;;;;;;;;;6315547;22;20177;-93
2021/03/08 01:00:09;;;;;;;20.55;13.23;;;;;;;;;;6317191;22;20185;-94
2021/03/08 01:02:35;;;;;;;22.65;13.50;;;;;;;;;;6314982;22;20177;-94
2021/03/08 01:05:02;;;;;;;22.38;13.25;;;;;;;;;;6317038;22;20174;-94
2021/03/08 01:07:28;;;;;;;26.40;15.70;;;;;;;;;;6317090;22;20182;-94
2021/03/08 01:09:54;;;;;;;26.63;16.05;;;;;;;;;;6316727;22;20188;-93
2021/03/08 01:12:20;;;;;;;25.40;16.17;;;;;;;;;;6317255;22;20177;-93
2021/03/08 01:14:47;;;;;;;27.38;15.70;;;;;;;;;;6316546;22;20307;-92
2021/03/08 01:17:13;;;;;;;23.45;15.05;;;;;;;;;;6319168;22;20174;-94
2021/03/08 01:19:39;;;;;;;22.20;14.05;;;;;;;;;;6316196;22;20185;-93
2021/03/08 01:22:05;;;;;;;26.65;14.68;;;;;;;;;;6317629;22;20186;-93
2021/03/08 01:24:31;;;;;;;24.38;15.20;;;;;;;;;;6317573;22;20185;-93
2021/03/08 01:26:57;;;;;;;26.98;15.52;;;;;;;;;;6318018;22;20180;-94
2021/03/08 01:29:23;;;;;;;24.52;14.68;;;;;;;;;;6316983;22;20219;-93
2021/03/08 01:31:50;;;;;;;57.50;27.60;;;;;;;;;;6319086;22;20202;-93
2021/03/08 01:34:16;;;;;;;118.40;49.78;;;;;;;;;;6316674;22;20208;-93
2021/03/08 01:36:42;;;;;;;33.70;17.80;;;;;;;;;;6317681;22;20177;-92
2021/03/08 01:39:08;;;;;;;34.75;16.98;;;;;;;;;;6316988;22;20419;-92
2021/03/08 01:41:34;;;;;;;25.48;15.57;;;;;;;;;;6318029;22;20175;-93
2021/03/08 01:44:00;;;;;;;28.85;15.98;;;;;;;;;;6315111;22;20188;-92
2021/03/08 01:46:27;;;;;;;35.80;21.08;;;;;;;;;;6315628;22;20226;-93
2021/03/08 01:48:53;;;;;;;38.63;20.98;;;;;;;;;;6317302;22;20178;-94
2021/03/08 01:51:20;;;;;;;24.63;14.80;;;;;;;;;;6316719;22;20177;-93
2021/03/08 01:53:46;;;;;;;32.22;17.38;;;;;;;;;;6315720;22;20193;-94
2021/03/08 01:56:12;;;;;;;31.33;16.02;;;;;;;;;;6313824;22;20231;-94
2021/03/08 01:58:40;;;;;;;28.98;16.05;;;;;;;;;;6316792;22;20177;-94
2021/03/08 02:01:06;;;;;;;32.05;17.45;;;;;;;;;;6315033;22;20197;-93
2021/03/08 02:03:32;;;;;;;31.15;17.88;;;;;;;;;;6317521;22;20174;-94
2021/03/08 02:05:59;;;;;;;32.90;18.33;;;;;;;;;;6317197;22;20184;-95
2021/03/08 02:08:26;;;;;;;30.90;17.60;;;;;;;;;;6317477;22;20177;-94
2021/03/08 02:10:52;;;;;;;29.52;16.02;;;;;;;;;;6315813;22;20178;-94
2021/03/08 02:13:33;;;;;;;25.45;14.68;;;;;;;;;;6317536;22;20174;-93
2021/03/08 02:16:02;;;;;;;24.08;14.25;;;;;;;;;;6315994;22;20185;-94
2021/03/08 02:18:35;;;;;;;25.58;14.95;;;;;;;;;;6317790;22;20204;-94
2021/03/08 02:21:19;;;;;;;27.25;15.20;;;;;;;;;;6316300;22;20174;-95
2021/03/08 02:24:03;;;;;;;20.42;12.65;;;;;;;;;;6316436;22;20181;-95
2021/03/08 02:26:36;;;;;;;21.60;12.73;;;;;;;;;;6317323;22;20184;-96
2021/03/08 02:29:08;;;;;;;22.05;13.52;;;;;;;;;;6318449;22;20182;-94
2021/03/08 02:31:35;;;;;;;26.80;15.13;;;;;;;;;;6316821;22;20204;-94
2021/03/08 02:34:04;;;;;;;20.88;13.90;;;;;;;;;;6317848;22;20193;-95
2021/03/08 02:36:33;;;;;;;25.35;14.80;;;;;;;;;;6316923;22;20757;-94
2021/03/08 02:39:00;;;;;;;27.50;16.70;;;;;;;;;;6318868;22;20177;-95
2021/03/08 02:41:27;;;;;;;23.85;13.93;;;;;;;;;;6317711;22;20342;-95
2021/03/08 02:43:56;;;;;;;22.85;13.18;;;;;;;;;;6318239;22;20196;-95
2021/03/08 02:46:24;;;;;;;21.63;13.55;;;;;;;;;;6316577;22;20181;-95
2021/03/08 02:48:51;;;;;;;22.23;13.75;;;;;;;;;;6318733;22;20180;-95
2021/03/08 02:51:20;;;;;;;27.73;15.13;;;;;;;;;;6318089;22;20184;-95
2021/03/08 02:53:48;;;;;;;27.75;16.08;;;;;;;;;;6317473;22;20177;-95
2021/03/08 02:56:16;;;;;;;25.80;15.65;;;;;;;;;;6319414;22;20556;-95
2021/03/08 02:58:45;;;;;;;25.55;15.35;;;;;;;;;;6318301;22;20174;-96
2021/03/08 03:01:12;;;;;;;25.73;16.08;;;;;;;;;;6320257;22;20514;-95
2021/03/08 03:03:39;;;;;;;27.45;16.05;;;;;;;;;;6317979;22;20178;-95
2021/03/08 03:06:06;;;;;;;29.63;17.13;;;;;;;;;;6320341;22;20178;-96
2021/03/08 03:08:33;;;;;;;27.48;16.77;;;;;;;;;;6318272;22;20173;-95
2021/03/08 03:10:59;;;;;;;30.45;17.58;;;;;;;;;;6322665;22;20177;-95
2021/03/08 03:13:26;;;;;;;28.95;16.55;;;;;;;;;;6327766;22;20157;-95
2021/03/08 03:15:52;;;;;;;30.25;16.80;;;;;;;;;;6323666;22;20205;-95
2021/03/08 03:18:19;;;;;;;31.58;17.42;;;;;;;;;;6317341;22;20184;-95
2021/03/08 03:20:45;;;;;;;28.90;15.82;;;;;;;;;;6318785;22;20182;-96
2021/03/08 03:23:13;;;;;;;27.40;15.60;;;;;;;;;;6318417;22;20185;-94
2021/03/08 03:25:40;;;;;;;19.75;13.65;;;;;;;;;;6320713;22;20191;-95
2021/03/08 03:28:07;;;;;;;21.05;12.38;;;;;;;;;;6320288;22;20184;-94
2021/03/08 03:30:33;;;;;;;24.63;12.60;;;;;;;;;;6324789;22;20201;-94
2021/03/08 03:32:59;;;;;;;21.48;13.00;;;;;;;;;;6327308;22;20177;-95
2021/03/08 03:35:29;;;;;;;22.17;13.20;;;;;;;;;;6318588;22;20201;-95
2021/03/08 03:37:56;;;;;;;22.92;12.95;;;;;;;;;;6319009;22;20178;-94
2021/03/08 03:40:23;;;;;;;21.88;13.25;;;;;;;;;;6316473;22;20177;-95
2021/03/08 03:42:51;;;;;;;22.58;13.55;;;;;;;;;;6318216;22;20177;-94
2021/03/08 03:45:18;;;;;;;27.90;14.63;;;;;;;;;;6318167;22;20200;-95
2021/03/08 03:47:44;;;;;;;20.75;12.25;;;;;;;;;;6319466;22;20180;-95
2021/03/08 03:50:13;;;;;;;22.83;14.35;;;;;;;;;;6317232;22;20184;-94
2021/03/08 03:52:39;;;;;;;23.45;13.95;;;;;;;;;;6318686;22;20174;-95
2021/03/08 03:55:07;;;;;;;23.45;13.30;;;;;;;;;;6317094;22;20197;-94
2021/03/08 03:57:36;;;;;;;28.45;14.10;;;;;;;;;;6317710;22;20185;-94
2021/03/08 04:00:05;;;;;;;26.70;14.70;;;;;;;;;;6317038;22;20177;-95
2021/03/08 04:02:35;;;;;;;21.50;14.30;;;;;;;;;;6318233;22;20184;-95
2021/03/08 04:05:02;;;;;;;20.15;13.13;;;;;;;;;;6315038;22;20183;-95
2021/03/08 04:07:28;;;;;;;29.90;15.98;;;;;;;;;;6315889;22;20177;-94
2021/03/08 04:09:55;;;;;;;29.88;16.80;;;;;;;;;;6315931;22;20182;-94
2021/03/08 04:12:23;;;;;;;29.80;16.92;;;;;;;;;;6317786;22;20200;-95
2021/03/08 04:14:51;;;;;;;25.45;15.18;;;;;;;;;;6318485;22;20201;-95
2021/03/08 04:17:17;;;;;;;27.83;14.88;;;;;;;;;;6320005;22;20173;-95
2021/03/08 04:19:44;;;;;;;30.13;15.18;;;;;;;;;;6318935;22;20173;-95
2021/03/08 04:22:11;;;;;;;27.23;16.85;;;;;;;;;;6322105;22;20177;-95
2021/03/08 04:24:40;;;;;;;29.48;16.08;;;;;;;;;;6323679;22;20183;-95
2021/03/08 04:27:08;;;;;;;32.33;17.17;;;;;;;;;;6319794;22;20173;-95
2021/03/08 04:29:35;;;;;;;29.33;16.40;;;;;;;;;;6317908;22;20174;-94
2021/03/08 04:32:04;;;;;;;29.73;17.27;;;;;;;;;;6315556;22;20193;-95
2021/03/08 04:34:31;;;;;;;29.40;16.45;;;;;;;;;;6318998;22;20234;-94
2021/03/08 04:36:58;;;;;;;30.05;16.92;;;;;;;;;;6317778;22;20177;-95
2021/03/08 04:39:25;;;;;;;29.30;17.20;;;;;;;;;;6318557;22;20179;-95
2021/03/08 04:41:52;;;;;;;32.67;17.65;;;;;;;;;;6317247;22;20173;-95
2021/03/08 04:44:18;;;;;;;29.83;17.65;;;;;;;;;;6317694;22;20177;-94
2021/03/08 04:46:44;;;;;;;30.60;16.65;;;;;;;;;;6316333;22;20697;-94
2021/03/08 04:49:11;;;;;;;31.70;18.00;;;;;;;;;;6317538;22;20185;-94
2021/03/08 04:51:38;;;;;;;37.20;18.75;;;;;;;;;;6315375;22;20181;-94
2021/03/08 04:54:05;;;;;;;36.30;18.67;;;;;;;;;;6317413;22;20185;-94
2021/03/08 04:56:32;;;;;;;36.47;21.25;;;;;;;;;;6316005;22;20177;-94
2021/03/08 04:58:58;;;;;;;35.72;20.15;;;;;;;;;;6318455;22;20204;-94
2021/03/08 05:01:25;;;;;;;39.25;20.65;;;;;;;;;;6319734;22;20654;-94
2021/03/08 05:03:52;;;;;;;34.08;18.23;;;;;;;;;;6292495;22;20173;-95
2021/03/08 05:06:22;;;;;;;29.48;17.60;;;;;;;;;;6316390;22;20172;-95
2021/03/08 05:08:49;;;;;;;29.27;16.75;;;;;;;;;;6317048;22;20185;-95
2021/03/08 05:11:16;;;;;;;30.85;18.13;;;;;;;;;;6319434;22;20177;-95
2021/03/08 05:13:42;;;;;;;37.05;21.15;;;;;;;;;;6319958;22;20186;-94
2021/03/08 05:16:09;;;;;;;40.95;21.90;;;;;;;;;;6317517;22;20166;-93
2021/03/08 05:18:35;;;;;;;35.33;19.98;;;;;;;;;;6316454;22;20184;-94
2021/03/08 05:21:02;;;;;;;35.50;19.73;;;;;;;;;;6320563;22;20236;-93
2021/03/08 05:23:29;;;;;;;33.80;19.75;;;;;;;;;;6325223;22;20232;-95
2021/03/08 05:25:56;;;;;;;35.38;19.95;;;;;;;;;;6317412;22;20185;-95
2021/03/08 05:28:22;;;;;;;32.17;18.55;;;;;;;;;;6316146;22;20234;-94
2021/03/08 05:30:52;;;;;;;34.47;19.70;;;;;;;;;;6322098;22;20646;-94
2021/03/08 05:33:21;;;;;;;31.85;18.67;;;;;;;;;;6314710;22;20178;-95
2021/03/08 05:35:49;;;;;;;32.17;18.75;;;;;;;;;;6317128;22;20247;-95
2021/03/08 05:38:16;;;;;;;31.85;18.73;;;;;;;;;;6315301;22;20178;-94
2021/03/08 05:40:45;;;;;;;38.78;21.67;;;;;;;;;;6315935;22;20173;-95
2021/03/08 05:43:12;;;;;;;39.88;23.13;;;;;;;;;;6314839;22;20174;-94
2021/03/08 05:45:42;;;;;;;47.53;26.33;;;;;;;;;;6316151;22;20204;-94
2021/03/08 05:48:23;;;;;;;47.40;25.05;;;;;;;;;;6317227;22;20208;-94
2021/03/08 05:51:07;;;;;;;47.83;25.83;;;;;;;;;;6312569;22;20177;-94
2021/03/08 05:53:52;;;;;;;41.35;25.33;;;;;;;;;;6312467;22;20178;-94
2021/03/08 05:56:25;;;;;;;54.78;28.58;;;;;;;;;;6314683;22;20178;-94
2021/03/08 05:59:16;;;;;;;55.92;29.60;;;;;;;;;;6316316;22;20196;-93
2021/03/08 06:01:49;;;;;;;48.00;26.35;;;;;;;;;;6319034;22;20548;-94
2021/03/08 06:04:26;;;;;;;49.40;28.58;;;;;;;;;;6315878;22;20173;-93
2021/03/08 06:07:19;;;;;;;50.58;27.95;;;;;;;;;;6319565;22;20184;-93
2021/03/08 06:09:47;;;;;;;55.15;30.20;;;;;;;;;;6261605;22;20170;-94
2021/03/08 06:12:17;;;;;;;64.35;35.60;;;;;;;;;;6319712;22;20223;-94
2021/03/08 06:14:43;;;;;;;50.17;30.92;;;;;;;;;;6317470;22;20194;-93
2021/03/08 06:17:11;;;;;;;65.72;34.10;;;;;;;;;;6320072;22;20220;-93
2021/03/08 06:19:38;;;;;;;62.53;33.75;;;;;;;;;;6317949;22;20178;-93
2021/03/08 06:22:07;;;;;;;53.25;33.00;;;;;;;;;;6319306;22;20177;-93
2021/03/08 06:24:36;;;;;;;48.75;30.20;;;;;;;;;;6318912;22;20185;-92
2021/03/08 06:27:02;;;;;;;50.58;28.30;;;;;;;;;;6317716;22;20185;-94
2021/03/08 06:29:30;;;;;;;61.38;31.20;;;;;;;;;;6319298;22;20174;-95
2021/03/08 06:31:57;;;;;;;51.33;31.70;;;;;;;;;;6317471;22;20199;-92
2021/03/08 06:34:23;;;;;;;54.90;33.63;;;;;;;;;;6318527;22;20198;-93
2021/03/08 06:36:49;;;;;;;44.63;30.30;;;;;;;;;;6317422;22;20647;-92
2021/03/08 06:39:15;;;;;;;50.58;29.98;;;;;;;;;;6316538;22;20412;-92
2021/03/08 06:41:41;;;;;;;48.22;26.55;;;;;;;;;;6316857;22;20185;-92
2021/03/08 06:44:07;;;;;;;44.33;26.05;;;;;;;;;;6316943;22;20174;-91
2021/03/08 06:46:35;;;;;;;46.92;28.33;;;;;;;;;;6314242;22;20184;-92
2021/03/08 06:49:01;;;;;;;48.00;26.40;;;;;;;;;;6317775;22;20200;-91
2021/03/08 06:51:27;;;;;;;29.90;20.38;;;;;;;;;;6318103;22;20181;-93
2021/03/08 06:53:53;;;;;;;41.05;23.88;;;;;;;;;;6319027;22;20184;-92
2021/03/08 06:56:20;;;;;;;39.30;25.30;;;;;;;;;;6317062;22;20179;-91
2021/03/08 06:59:03;;;;;;;40.88;24.88;;;;;;;;;;6319363;22;20179;-93
2021/03/08 07:01:30;;;;;;;32.17;20.88;;;;;;;;;;6319305;22;20181;-92
2021/03/08 07:03:57;;;;;;;35.25;20.70;;;;;;;;;;6319474;22;20174;-92
2021/03/08 07:06:23;;;;;;;31.05;20.35;;;;;;;;;;6317941;22;20183;-92
2021/03/08 07:08:49;;;;;;;33.33;20.77;;;;;;;;;;6318446;22;20184;-92
2021/03/08 07:11:16;;;;;;;36.58;21.05;;;;;;;;;;6317616;22;20178;-91
2021/03/08 07:13:42;;;;;;;35.72;21.10;;;;;;;;;;6314577;22;20187;-91
2021/03/08 07:16:08;;;;;;;36.58;21.67;;;;;;;;;;6315119;22;20229;-91
2021/03/08 07:18:34;;;;;;;36.88;21.98;;;;;;;;;;6315794;22;20180;-91
2021/03/08 07:21:24;;;;;;;34.60;21.83;;;;;;;;;;6318965;22;20183;-92
2021/03/08 07:23:52;;;;;;;36.15;23.15;;;;;;;;;;6300551;22;20230;-91
2021/03/08 07:26:19;;;;;;;36.95;23.77;;;;;;;;;;6317940;22;20185;-91
2021/03/08 07:29:05;;;;;;;32.65;22.85;;;;;;;;;;6315748;22;20257;-91
2021/03/08 07:31:35;;;;;;;38.73;24.93;;;;;;;;;;6316406;22;20680;-93
2021/03/08 07:34:02;;;;;;;42.25;24.13;;;;;;;;;;6313214;22;20433;-91
2021/03/08 07:36:28;;;;;;;39.60;22.75;;;;;;;;;;6315304;22;20172;-92
2021/03/08 07:38:54;;;;;;;36.33;22.10;;;;;;;;;;6314232;22;20183;-92
2021/03/08 07:41:21;;;;;;;36.40;22.87;;;;;;;;;;6316312;22;20184;-92
2021/03/08 07:43:48;;;;;;;36.53;21.77;;;;;;;;;;6314975;22;20472;-91
2021/03/08 07:46:27;;;;;;;29.10;20.08;;;;;;;;;;6315492;22;20399;-90
2021/03/08 07:48:53;;;;;;;31.23;18.92;;;;;;;;;;6316543;22;20182;-92
2021/03/08 07:51:19;;;;;;;26.00;18.02;;;;;;;;;;6317836;22;20178;-92
2021/03/08 07:53:45;;;;;;;32.33;19.60;;;;;;;;;;6315176;22;20186;-92
2021/03/08 07:56:12;;;;;;;35.27;20.17;;;;;;;;;;6317109;22;20452;-91
2021/03/08 07:58:38;;;;;;;34.28;19.75;;;;;;;;;;6315537;22;21000;-91
2021/03/08 08:01:05;;;;;;;30.13;20.37;;;;;;;;;;6317976;22;20182;-91
2021/03/08 08:03:32;;;;;;;29.50;19.13;;;;;;;;;;6317334;22;20411;-92
2021/03/08 08:06:00;;;;;;;30.70;21.90;;;;;;;;;;6316629;22;20415;-91
2021/03/08 08:08:27;;;;;;;31.60;19.43;;;;;;;;;;6316747;22;20434;-92
2021/03/08 08:10:54;;;;;;;30.17;19.37;;;;;;;;;;6314025;22;20453;-91
2021/03/08 08:13:24;;;;;;;28.33;20.40;;;;;;;;;;6317155;22;20412;-91
2021/03/08 08:15:51;;;;;;;31.57;20.43;;;;;;;;;;6312483;22;20458;-91
2021/03/08 08:18:18;;;;;;;27.97;19.87;;;;;;;;;;6317409;22;20420;-89
2021/03/08 08:20:45;;;;;;;29.83;20.50;;;;;;;;;;6315463;22;20434;-91
2021/03/08 08:23:12;;;;;;;32.13;20.70;;;;;;;;;;6316643;22;20408;-92
2021/03/08 08:25:39;;;;;;;30.13;20.80;;;;;;;;;;6315417;22;20419;-91
2021/03/08 08:28:05;;;;;;;27.47;19.37;;;;;;;;;;6316663;22;20411;-91
2021/03/08 08:30:32;;;;;;;29.33;21.77;;;;;;;;;;6313806;22;20432;-91
2021/03/08 08:32:59;;;;;;;30.07;20.63;;;;;;;;;;6316165;22;20411;-92
2021/03/08 08:35:28;;;;;;;26.00;19.87;;;;;;;;;;6316383;22;21050;-92
2021/03/08 08:38:14;;;;;;;30.00;20.30;;;;;;;;;;6319049;22;20427;-93
2021/03/08 08:40:41;;;;;;;26.17;19.10;;;;;;;;;;6315554;22;20412;-91
2021/03/08 08:43:22;;;;;;;35.10;21.83;;;;;;;;;;6315843;22;20408;-93
2021/03/08 08:45:50;;;;;;;30.47;20.63;;;;;;;;;;6312914;22;20465;-92
2021/03/08 08:48:16;;;;;;;32.90;20.03;;;;;;;;;;6315809;22;20404;-91
2021/03/08 08:50:44;;;;;;;28.13;21.10;;;;;;;;;;6315694;22;20405;-95
2021/03/08 08:53:10;;;;;;;30.20;20.10;;;;;;;;;;6316255;22;20403;-93
2021/03/08 08:55:48;;;;;;;26.27;19.43;;;;;;;;;;6315391;22;20462;-91
2021/03/08 08:58:20;;;;;;;28.40;19.80;;;;;;;;;;6316478;22;20408;-92
2021/03/08 09:01:05;;;;;;;29.50;18.73;;;;;;;;;;6316516;22;20430;-93
2021/03/08 09:03:46;;;;;;;27.30;20.10;;;;;;;;;;6316673;22;20400;-91
2021/03/08 09:06:27;;;;;;;29.30;19.20;;;;;;;;;;6313246;22;20417;-92
2021/03/08 09:08:53;;;;;;;20.83;16.63;;;;;;;;;;6313897;22;21485;-92
2021/03/08 09:11:34;;;;;;;22.93;16.67;;;;;;;;;;6313087;22;20401;-93
2021/03/08 09:14:22;;;;;;;21.40;16.20;;;;;;;;;;6314820;22;20406;-93
2021/03/08 09:16:49;;;;;;;25.83;16.73;;;;;;;;;;6308119;22;20473;-92
2021/03/08 09:19:26;;;;;;;21.83;17.73;;;;;;;;;;6317274;22;20405;-92
2021/03/08 09:22:12;;;;;;;23.47;16.87;;;;;;;;;;6316646;22;20410;-92
2021/03/08 09:24:39;;;;;;;20.90;16.47;;;;;;;;;;6314022;22;20423;-93
2021/03/08 09:27:05;;;;;;;21.00;16.40;;;;;;;;;;6313657;22;20402;-92
2021/03/08 09:29:31;;;;;;;34.17;18.70;;;;;;;;;;6316582;22;20411;-92
2021/03/08 09:31:57;;;;;;;23.60;16.70;;;;;;;;;;6316401;22;20469;-92
2021/03/08 09:34:23;;;;;;;23.27;18.60;;;;;;;;;;6315522;22;20451;-92
2021/03/08 09:36:50;;;;;;;21.07;16.40;;;;;;;;;;6316248;22;20412;-91
2021/03/08 09:39:16;;;;;;;19.07;16.00;;;;;;;;;;6314596;22;20412;-93
2021/03/08 09:41:43;;;;;;;22.53;16.00;;;;;;;;;;6314988;22;20407;-95
2021/03/08 09:44:09;;;;;;;20.80;16.40;;;;;;;;;;6314514;22;20414;-92
2021/03/08 09:46:35;;;;;;;22.00;16.57;;;;;;;;;;6317221;22;20415;-91
2021/03/08 09:49:04;;;;;;;20.30;16.63;;;;;;;;;;6314557;22;20404;-91
2021/03/08 09:51:30;;;;;;;21.87;17.20;;;;;;;;;;6315507;22;20416;-92
2021/03/08 09:53:57;;;;;;;17.70;14.53;;;;;;;;;;6315057;22;20420;-93
2021/03/08 09:56:24;;;;;;;19.90;14.70;;;;;;;;;;6317192;22;20510;-94
2021/03/08 09:58:59;;;;;;;18.77;13.57;;;;;;;;;;6315497;22;20433;-92
2021/03/08 10:01:25;;;;;;;14.80;13.23;;;;;;;;;;6317117;22;20414;-92
2021/03/08 10:03:51;;;;;;;14.93;12.93;;;;;;;;;;6315757;22;20426;-91
2021/03/08 10:06:24;;;;;;;17.00;14.20;;;;;;;;;;6315421;22;20404;-94
2021/03/08 10:08:50;;;;;;;14.67;13.17;;;;;;;;;;6314369;22;20424;-93
2021/03/08 10:11:20;;;;;;;16.90;13.23;;;;;;;;;;6316031;22;20404;-92
2021/03/08 10:13:46;;;;;;;15.30;12.20;;;;;;;;;;6315576;22;20438;-92
2021/03/08 10:16:19;;;;;;;15.57;12.60;;;;;;;;;;6317934;22;20452;-92
2021/03/08 10:18:45;;;;;;;14.10;11.20;;;;;;;;;;6315990;22;21546;-92
2021/03/08 10:21:11;;;;;;;15.67;11.87;;;;;;;;;;6313165;22;20416;-91
2021/03/08 10:23:37;;;;;;;16.20;12.30;;;;;;;;;;6316402;22;20411;-93
2021/03/08 10:26:04;;;;;;;17.43;13.20;;;;;;;;;;6315187;22;20513;-92
2021/03/08 10:28:37;;;;;;;15.83;12.67;;;;;;;;;;6316366;22;20404;-92
2021/03/08 10:31:03;;;;;;;13.00;11.43;;;;;;;;;;6312335;22;20428;-91
2021/03/08 10:33:31;;;;;;;13.83;12.10;;;;;;;;;;6314589;22;20408;-92
2021/03/08 10:35:57;;;;;;;15.67;11.30;;;;;;;;;;6314985;22;20458;-92
2021/03/08 10:38:24;;;;;;;16.07;11.20;;;;;;;;;;6316345;22;20416;-93
2021/03/08 10:40:53;;;;;;;14.60;11.30;;;;;;;;;;6314422;22;20408;-91
2021/03/08 10:43:20;;;;;;;12.07;10.63;;;;;;;;;;6316826;22;20434;-92
2021/03/08 10:45:48;;;;;;;16.67;11.37;;;;;;;;;;6315769;22;20404;-92
2021/03/08 10:48:14;;;;;;;12.57;10.40;;;;;;;;;;6313527;22;20408;-92
2021/03/08 10:50:42;;;;;;;17.67;10.23;;;;;;;;;;6308201;22;20414;-92
2021/03/08 10:53:08;;;;;;;14.60;9.90;;;;;;;;;;6311125;22;20849;-92
2021/03/08 10:55:34;;;;;;;11.60;10.07;;;;;;;;;;6310493;22;20516;-92
2021/03/08 10:58:02;;;;;;;12.00;10.20;;;;;;;;;;6311612;22;21243;-93
2021/03/08 11:00:28;;;;;;;9.60;8.60;;;;;;;;;;6308395;22;20411;-93
2021/03/08 11:02:54;;;;;;;14.30;8.70;;;;;;;;;;6313852;22;20404;-94
2021/03/08 11:05:22;;;;;;;9.70;7.90;;;;;;;;;;6318686;22;20836;-92
2021/03/08 11:07:49;;;;;;;9.13;7.77;;;;;;;;;;6317993;22;20718;-92
2021/03/08 11:10:15;;;;;;;9.03;7.30;;;;;;;;;;6317829;22;20457;-92
2021/03/08 11:12:41;;;;;;;9.23;7.60;;;;;;;;;;6317296;22;20415;-91
2021/03/08 11:15:08;;;;;;;10.10;7.67;;;;;;;;;;6318235;22;20458;-93
2021/03/08 11:17:35;;;;;;;10.87;8.00;;;;;;;;;;6316409;22;20407;-91
2021/03/08 11:20:09;;;;;;;10.23;7.60;;;;;;;;;;6318953;22;20435;-91
2021/03/08 11:22:51;;;;;;;10.57;7.60;;;;;;;;;;6317288;22;20419;-92
2021/03/08 11:25:27;;;;;;;8.90;7.73;;;;;;;;;;6317036;22;20420;-92
2021/03/08 11:27:55;;;;;;;10.97;8.20;;;;;;;;;;6315126;22;20897;-92
2021/03/08 11:30:22;;;;;;;10.20;8.40;;;;;;;;;;6318628;22;20419;-93
2021/03/08 11:32:51;;;;;;;9.63;7.87;;;;;;;;;;6316521;22;20416;-92
2021/03/08 11:35:18;;;;;;;8.37;7.47;;;;;;;;;;6317299;22;20454;-90
2021/03/08 11:37:47;;;;;;;8.03;7.23;;;;;;;;;;6315544;22;20413;-93
2021/03/08 11:40:15;;;;;;;11.87;8.37;;;;;;;;;;6315994;22;20408;-92
2021/03/08 11:42:41;;;;;;;8.73;7.63;;;;;;;;;;6313688;22;20408;-93
2021/03/08 11:45:08;;;;;;;10.07;8.20;;;;;;;;;;6318538;22;20408;-93
2021/03/08 11:47:34;;;;;;;10.63;8.07;;;;;;;;;;6318043;22;20416;-93
2021/03/08 11:50:00;;;;;;;10.20;7.73;;;;;;;;;;6319694;22;20479;-91
2021/03/08 11:52:26;;;;;;;11.43;10.30;;;;;;;;;;6316657;22;20433;-92
2021/03/08 11:54:52;;;;;;;13.27;8.03;;;;;;;;;;6318168;22;21391;-93
2021/03/08 11:57:19;;;;;;;17.20;12.03;;;;;;;;;;6317289;22;20404;-92
2021/03/08 11:59:45;;;;;;;13.73;9.70;;;;;;;;;;6316738;22;20423;-91
2021/03/08 12:02:11;;;;;;;11.40;9.50;;;;;;;;;;6317779;22;20408;-93
2021/03/08 12:04:37;;;;;;;11.93;9.60;;;;;;;;;;6314652;22;20423;-91
2021/03/08 12:07:04;;;;;;;14.80;13.37;;;;;;;;;;6315647;22;20404;-92
2021/03/08 12:09:33;;;;;;;13.87;10.83;;;;;;;;;;6316518;22;21159;-91
2021/03/08 12:11:59;;;;;;;9.87;7.40;;;;;;;;;;6319799;22;21331;-91
2021/03/08 12:14:26;;;;;;;10.53;7.17;;;;;;;;;;6315559;22;20408;-93
2021/03/08 12:16:52;;;;;;;8.23;7.33;;;;;;;;;;6316643;22;20407;-92
2021/03/08 12:19:18;;;;;;;9.23;7.40;;;;;;;;;;6314884;22;20415;-92
2021/03/08 12:21:45;;;;;;;12.10;8.47;;;;;;;;;;6316612;22;20404;-92
2021/03/08 12:24:11;;;;;;;10.77;7.50;;;;;;;;;;6314591;22;20412;-93
2021/03/08 12:26:37;;;;;;;9.60;7.63;;;;;;;;;;6315144;22;20420;-92
2021/03/08 12:29:03;;;;;;;9.37;7.43;;;;;;;;;;6313317;22;20404;-92
2021/03/08 12:31:29;;;;;;;13.60;7.87;;;;;;;;;;6314535;22;20428;-93
2021/03/08 12:33:55;;;;;;;8.30;7.27;;;;;;;;;;6318394;22;20422;-92
2021/03/08 12:36:22;;;;;;;9.30;7.70;;;;;;;;;;6318689;22;20454;-94
2021/03/08 12:38:48;;;;;;;10.17;6.80;;;;;;;;;;6316633;22;20414;-94
2021/03/08 12:41:14;;;;;;;8.00;7.20;;;;;;;;;;6316193;22;20426;-92
2021/03/08 12:43:40;;;;;;;10.20;7.10;;;;;;;;;;6316384;22;20412;-93
2021/03/08 12:46:06;;;;;;;15.10;8.20;;;;;;;;;;6314774;22;20407;-92
2021/03/08 12:48:33;;;;;;;9.67;7.50;;;;;;;;;;6316408;22;20416;-94
2021/03/08 12:51:00;;;;;;;8.23;7.43;;;;;;;;;;6317759;22;20408;-93
2021/03/08 12:53:26;;;;;;;9.10;7.47;;;;;;;;;;6319324;22;20427;-94
2021/03/08 12:55:52;;;;;;;10.60;7.77;;;;;;;;;;6316862;22;20443;-92
2021/03/08 12:58:21;;;;;;;14.83;7.53;;;;;;;;;;6318076;22;20404;-95
2021/03/08 13:00:47;;;;;;;10.30;7.70;;;;;;;;;;6317638;22;20404;-91
2021/03/08 13:03:13;;;;;;;10.00;7.77;;;;;;;;;;6316815;22;20446;-94
2021/03/08 13:05:43;;;;;;;9.43;7.50;;;;;;;;;;6319116;22;20427;-96
2021/03/08 13:08:09;;;;;;;13.73;7.83;;;;;;;;;;6318538;22;20454;-92
2021/03/08 13:10:35;;;;;;;10.03;7.27;;;;;;;;;;6318215;22;20411;-95
2021/03/08 13:13:01;;;;;;;9.43;7.43;;;;;;;;;;6318638;22;20408;-91
2021/03/08 13:15:29;;;;;;;11.50;7.60;;;;;;;;;;6317995;22;20453;-95
2021/03/08 13:17:56;;;;;;;9.60;8.60;;;;;;;;;;6318332;22;20420;-94
2021/03/08 13:20:22;;;;;;;9.00;7.83;;;;;;;;;;6314225;22;20415;-91
2021/03/08 13:22:49;;;;;;;10.43;6.90;;;;;;;;;;6313772;22;20400;-94
2021/03/08 13:25:16;;;;;;;9.07;7.10;;;;;;;;;;6316881;22;20857;-95
2021/03/08 13:27:47;;;;;;;10.23;7.43;;;;;;;;;;6312370;22;20783;-93
2021/03/08 13:30:17;;;;;;;8.37;6.73;;;;;;;;;;6314313;22;20480;-95
2021/03/08 13:32:43;;;;;;;8.50;7.37;;;;;;;;;;6311600;22;20754;-91
2021/03/08 13:35:09;;;;;;;8.80;7.60;;;;;;;;;;6316281;22;20455;-92
2021/03/08 13:37:35;;;;;;;15.43;7.77;;;;;;;;;;6316636;22;20404;-93
2021/03/08 13:40:14;;;;;;;10.90;7.20;;;;;;;;;;6316889;22;20408;-92
2021/03/08 13:42:40;;;;;;;11.60;7.77;;;;;;;;;;6321776;22;20475;-93
2021/03/08 13:45:07;;;;;;;8.77;7.27;;;;;;;;;;6316612;22;20408;-93
2021/03/08 13:47:33;;;;;;;9.63;7.73;;;;;;;;;;6316381;22;20408;-91
2021/03/08 13:49:59;;;;;;;10.37;7.23;;;;;;;;;;6316882;22;20438;-92
2021/03/08 13:52:25;;;;;;;12.83;7.60;;;;;;;;;;6314182;22;20414;-95
2021/03/08 13:54:51;;;;;;;10.70;8.00;;;;;;;;;;6315359;22;20451;-92
2021/03/08 13:57:18;;;;;;;10.60;8.00;;;;;;;;;;6314940;22;20442;-93
2021/03/08 13:59:44;;;;;;;11.50;7.90;;;;;;;;;;6318921;22;20436;-92
2021/03/08 14:02:10;;;;;;;13.17;7.30;;;;;;;;;;6316650;22;20412;-93
2021/03/08 14:04:36;;;;;;;8.73;7.10;;;;;;;;;;6315634;22;21372;-91
2021/03/08 14:07:02;;;;;;;12.40;7.80;;;;;;;;;;6315806;22;20470;-91
2021/03/08 14:09:28;;;;;;;8.53;6.20;;;;;;;;;;6313382;22;20438;-90
2021/03/08 14:11:54;;;;;;;10.07;7.27;;;;;;;;;;6315608;22;20894;-91
2021/03/08 14:14:21;;;;;;;9.83;6.73;;;;;;;;;;6314585;22;20399;-93
2021/03/08 14:16:47;;;;;;;8.67;7.00;;;;;;;;;;6316184;22;20452;-90
2021/03/08 14:19:13;;;;;;;8.27;7.40;;;;;;;;;;6314377;22;20468;-90
2021/03/08 14:21:39;;;;;;;16.43;8.00;;;;;;;;;;6316316;22;20408;-93
2021/03/08 14:24:05;;;;;;;10.10;7.40;;;;;;;;;;6315742;22;20412;-90
2021/03/08 14:26:31;;;;;;;10.20;7.07;;;;;;;;;;6316287;22;20443;-91